createdAt,value
2018-10-19T05:36:47.004Z,957.19
2018-10-19T05:37:08.473Z,957.24
2018-10-19T05:38:08.468Z,957.21
2018-10-19T05:39:18.475Z,957.26
2018-10-19T05:40:08.657Z,957.29
2018-10-19T05:41:08.692Z,957.28
2018-10-19T05:42:18.502Z,957.35
2018-10-19T05:43:08.644Z,957.39
2018-10-19T05:44:08.634Z,957.36
2018-10-19T05:45:08.470Z,957.38
2018-10-19T05:46:08.349Z,957.38
2018-10-19T05:47:08.423Z,957.38
2018-10-19T05:48:08.246Z,957.38
2018-10-19T05:49:08.333Z,957.38
2018-10-19T05:50:08.288Z,957.45
2018-10-19T05:51:08.220Z,957.40
2018-10-19T05:52:08.258Z,957.39
2018-10-19T05:53:08.273Z,957.43
2018-10-19T05:54:08.198Z,957.42
2018-10-19T05:55:19.214Z,957.41
2018-10-19T05:56:18.200Z,957.45
2018-10-19T05:57:08.510Z,957.42
2018-10-19T05:58:08.258Z,957.42
2018-10-19T05:59:18.177Z,957.48
2018-10-19T06:00:08.578Z,957.44
2018-10-19T06:01:08.447Z,957.44
2018-10-19T06:02:16.093Z,957.44
2018-10-19T06:03:33.616Z,957.47
2018-10-19T06:04:21.157Z,957.45
2018-10-19T06:05:08.364Z,957.51
2018-10-19T06:06:08.505Z,957.52
2018-10-19T06:07:09.002Z,957.47
2018-10-19T06:08:08.096Z,957.50
2018-10-19T06:09:08.092Z,957.50
2018-10-19T06:10:09.689Z,957.48
2018-10-19T06:11:19.812Z,957.45
2018-10-19T06:12:08.574Z,957.48
2018-10-19T06:13:08.257Z,957.50
2018-10-19T06:14:08.115Z,957.47
2018-10-19T06:15:08.062Z,957.53
2018-10-19T06:16:07.993Z,957.53
2018-10-19T06:17:08.781Z,957.51
2018-10-19T06:18:08.000Z,957.51
2018-10-19T06:19:19.473Z,957.52
2018-10-19T06:20:08.212Z,957.49
2018-10-19T06:23:53.484Z,957.50
2018-10-19T06:24:53.222Z,957.53
2018-10-19T06:27:17.369Z,957.59
2018-10-19T06:28:15.106Z,957.57
2018-10-19T06:29:16.186Z,957.59
2018-10-19T06:32:03.887Z,957.63
2018-10-19T06:33:23.989Z,957.63
2018-10-19T06:33:53.197Z,957.63
2018-10-19T06:34:58.849Z,957.64
2018-10-19T06:35:50.345Z,957.66
2018-10-19T06:36:50.511Z,957.68
2018-10-19T06:38:12.120Z,957.66
2018-10-19T06:38:50.091Z,957.69
2018-10-19T06:41:06.842Z,957.75
2018-10-19T06:43:24.489Z,957.72
2018-10-19T06:44:23.364Z,957.72
2018-10-19T06:45:25.972Z,957.76
2018-10-19T06:46:23.113Z,957.72
2018-10-19T06:49:11.329Z,957.78
2018-10-19T06:50:10.878Z,957.77
2018-10-19T06:53:18.817Z,957.80
2018-10-19T06:53:34.678Z,957.76
2018-10-19T06:54:35.734Z,957.76
2018-10-19T06:55:34.785Z,957.78
2018-10-19T06:56:35.722Z,957.81
2018-10-19T06:57:35.704Z,957.80
2018-10-19T06:58:34.671Z,957.86
2018-10-19T06:59:34.884Z,957.84
2018-10-19T07:00:34.647Z,957.87
2018-10-19T07:01:34.672Z,957.86
2018-10-19T07:02:34.672Z,957.86
2018-10-19T07:03:34.669Z,957.85
2018-10-19T07:08:14.723Z,957.93
2018-10-19T07:09:00.926Z,957.98
2018-10-19T07:10:00.597Z,957.89
2018-10-19T07:37:58.486Z,958.07
2018-10-19T07:53:06.236Z,958.22
2018-10-19T07:53:36.826Z,958.20
2018-10-19T08:19:30.544Z,958.49
2018-10-19T08:20:30.711Z,958.53
2018-10-19T08:24:28.972Z,958.52
2018-10-19T08:25:25.061Z,958.56
2018-10-19T08:26:26.012Z,958.53
2018-10-19T08:29:01.078Z,958.53
2018-10-19T08:30:08.154Z,958.53
2018-10-19T08:37:03.573Z,958.59
2018-10-19T08:37:35.525Z,958.62
2018-10-19T08:39:53.248Z,958.62
2018-10-19T08:42:07.939Z,958.62
2018-10-19T08:43:07.788Z,958.62
2018-10-19T08:44:17.257Z,958.62
2018-10-19T08:45:18.555Z,958.61
2018-10-19T08:46:27.108Z,958.66
2018-10-19T08:47:07.876Z,958.63
2018-10-19T08:48:21.913Z,958.64
2018-10-19T08:49:21.696Z,958.65
2018-10-19T08:51:41.403Z,958.64
2018-10-19T08:52:57.514Z,958.72
2018-10-19T08:53:40.447Z,958.70
2018-10-19T08:54:39.213Z,958.67
2018-10-19T08:55:39.844Z,958.67
2018-10-19T08:56:51.159Z,958.67
2018-10-19T09:00:45.969Z,958.66
2018-10-19T09:05:08.293Z,958.68
2018-10-19T09:05:56.371Z,958.69
2018-10-19T09:15:07.689Z,958.68
2018-10-19T09:18:00.454Z,958.74
2018-10-19T09:22:13.407Z,958.74
2018-10-19T09:23:28.993Z,958.73
2018-10-19T09:25:53.400Z,958.73
2018-10-19T09:26:52.285Z,958.77
2018-10-19T09:27:52.060Z,958.78
2018-10-19T09:28:52.879Z,958.76
2018-10-19T09:29:51.819Z,958.75
2018-10-19T09:30:51.744Z,958.75
2018-10-19T09:31:52.762Z,958.74
2018-10-19T09:32:56.373Z,958.73
2018-10-19T09:33:51.788Z,958.72
2018-10-19T09:34:53.290Z,958.71
2018-10-19T09:35:52.775Z,958.72
2018-10-19T09:36:51.965Z,958.72
2018-10-19T09:37:53.283Z,958.70
2018-10-19T09:38:53.304Z,958.73
2018-10-19T09:39:52.838Z,958.70
2018-10-19T09:40:52.921Z,958.70
2018-10-19T09:42:14.439Z,958.70
2018-10-19T09:42:53.695Z,958.65
2018-10-19T09:43:52.419Z,958.66
2018-10-19T09:44:52.787Z,958.69
2018-10-19T09:45:53.390Z,958.71
2018-10-19T09:46:52.695Z,958.67
2018-10-19T09:47:54.752Z,958.70
2018-10-19T09:48:52.367Z,958.69
2018-10-19T09:50:12.859Z,958.70
2018-10-19T09:50:58.846Z,958.70
2018-10-19T09:53:09.932Z,958.72
2018-10-19T09:55:30.784Z,958.68
2018-10-19T09:56:31.894Z,958.73
2018-10-19T09:57:32.302Z,958.67
2018-10-19T09:58:33.151Z,958.74
2018-10-19T09:59:32.859Z,958.68
2018-10-19T10:01:01.343Z,958.69
2018-10-19T10:01:36.206Z,958.70
2018-10-19T10:02:31.517Z,958.73
2018-10-19T10:03:36.147Z,958.66
2018-10-19T10:05:55.509Z,958.67
2018-10-19T10:10:23.875Z,958.69
2018-10-19T10:11:19.254Z,958.71
2018-10-19T10:12:25.947Z,958.68
2018-10-19T10:15:18.402Z,958.67
2018-10-19T10:16:14.334Z,958.67
2018-10-19T10:16:59.860Z,958.70
2018-10-19T10:18:07.800Z,958.69
2018-10-19T10:29:59.920Z,958.73
2018-10-19T10:30:59.682Z,958.72
2018-10-19T10:36:17.995Z,958.70
2018-10-19T10:39:23.720Z,958.70
2018-10-19T10:39:57.179Z,958.69
2018-10-19T10:40:58.165Z,958.71
2018-10-19T10:41:56.106Z,958.70
2018-10-19T10:42:55.648Z,958.71
2018-10-19T10:43:57.318Z,958.68
2018-10-19T10:46:44.534Z,958.65
2018-10-19T10:48:04.512Z,958.64
2018-10-19T10:48:45.183Z,958.64
2018-10-19T10:49:48.842Z,958.66
2018-10-19T10:54:12.690Z,958.64
2018-10-19T10:55:46.527Z,958.66
2018-10-19T10:56:07.984Z,958.68
2018-10-19T10:58:59.561Z,958.64
2018-10-19T10:59:42.046Z,958.62
2018-10-19T11:04:56.799Z,958.62
2018-10-19T11:05:58.352Z,958.61
2018-10-19T11:07:44.984Z,958.62
2018-10-19T11:07:59.568Z,958.60
2018-10-19T11:08:57.912Z,958.56
2018-10-19T11:09:59.394Z,958.58
2018-10-19T11:12:21.676Z,958.58
2018-10-19T11:13:34.398Z,958.60
2018-10-19T11:14:23.288Z,958.62
2018-10-19T11:15:21.323Z,958.57
2018-10-19T11:16:22.268Z,958.60
2018-10-19T11:19:24.401Z,958.64
2018-10-19T11:23:04.413Z,958.60
2018-10-19T11:25:28.782Z,958.60
2018-10-19T11:28:27.934Z,958.60
2018-10-19T11:29:28.339Z,958.69
2018-10-19T11:30:30.408Z,958.68
2018-10-19T11:33:51.703Z,958.65
2018-10-19T11:36:43.690Z,958.64
2018-10-19T11:39:53.054Z,958.68
2018-10-19T11:47:04.539Z,958.62
2018-10-19T11:48:05.687Z,958.62
2018-10-19T11:49:21.059Z,958.59
2018-10-19T11:50:14.765Z,958.61
2018-10-19T11:51:13.208Z,958.61
2018-10-19T11:54:42.238Z,958.55
2018-10-19T11:57:22.363Z,958.52
2018-10-19T12:00:31.783Z,958.51
2018-10-19T12:03:04.890Z,958.51
2018-10-19T12:04:04.754Z,958.51
2018-10-19T12:08:21.047Z,958.51
2018-10-19T12:09:22.334Z,958.50
2018-10-19T12:10:32.583Z,958.46
2018-10-19T12:11:21.185Z,958.44
2018-10-19T12:12:33.162Z,958.47
2018-10-19T12:13:20.955Z,958.43
2018-10-19T12:14:20.853Z,958.41
2018-10-19T12:18:24.105Z,958.35
2018-10-19T12:21:14.782Z,958.32
2018-10-19T12:24:06.940Z,958.37
2018-10-19T12:25:08.610Z,958.33
2018-10-19T12:26:06.698Z,958.32
2018-10-19T12:27:06.656Z,958.31
2018-10-19T12:28:15.249Z,958.33
2018-10-19T12:29:06.720Z,958.29
2018-10-19T12:30:19.338Z,958.28
2018-10-19T12:32:22.189Z,958.22
2018-10-19T12:33:21.803Z,958.24
2018-10-19T12:34:21.611Z,958.24
2018-10-19T12:35:41.199Z,958.26
2018-10-19T12:36:21.843Z,958.22
2018-10-19T12:37:34.120Z,958.17
2018-10-19T12:38:21.828Z,958.22
2018-10-19T12:39:33.585Z,958.21
2018-10-19T12:40:21.835Z,958.19
2018-10-19T12:41:37.685Z,958.17
2018-10-19T12:42:21.728Z,958.19
2018-10-19T12:43:32.783Z,958.17
2018-10-19T12:44:21.808Z,958.20
2018-10-19T12:45:22.580Z,958.17
2018-10-19T12:47:51.362Z,958.17
2018-10-19T12:50:51.293Z,958.11
2018-10-19T12:52:05.931Z,958.14
2018-10-19T12:53:05.754Z,958.10
2018-10-19T12:55:06.382Z,958.09
2018-10-19T12:56:06.494Z,958.07
2018-10-19T12:57:06.691Z,958.11
2018-10-19T12:58:07.152Z,958.08
2018-10-19T13:02:13.329Z,958.07
2018-10-19T13:03:13.295Z,958.09
2018-10-19T13:04:13.283Z,958.04
2018-10-19T13:05:13.135Z,958.08
2018-10-19T13:06:22.123Z,958.09
2018-10-19T13:07:22.996Z,958.13
2018-10-19T13:08:13.231Z,958.09
2018-10-19T13:09:13.154Z,958.09
2018-10-19T13:10:24.688Z,958.06
2018-10-19T13:11:13.846Z,958.09
2018-10-19T13:12:22.949Z,958.06
2018-10-19T13:13:24.783Z,958.08
2018-10-19T13:14:13.147Z,958.07
2018-10-19T13:15:13.072Z,958.08
2018-10-19T13:16:13.026Z,958.06
2018-10-19T13:17:13.119Z,958.04
2018-10-19T13:18:13.861Z,958.06
2018-10-19T13:19:13.397Z,958.00
2018-10-19T13:20:12.853Z,958.02
2018-10-19T13:21:24.278Z,958.01
2018-10-19T13:22:29.521Z,958.02
2018-10-19T13:23:12.929Z,957.98
2018-10-19T13:24:25.478Z,958.02
2018-10-19T13:25:24.899Z,957.97
2018-10-19T13:26:13.050Z,958.02
2018-10-19T13:27:23.276Z,958.03
2018-10-19T13:28:31.637Z,957.99
2018-10-19T13:29:12.886Z,957.99
2018-10-19T13:30:25.873Z,957.96
2018-10-19T13:31:14.604Z,958.02
2018-10-19T13:32:24.451Z,957.97
2018-10-19T13:33:13.059Z,958.01
2018-10-19T13:34:12.953Z,957.94
2018-10-19T13:35:14.583Z,957.95
2018-10-19T13:36:14.513Z,957.98
2018-10-19T13:38:23.487Z,957.91
2018-10-19T13:39:24.177Z,957.96
2018-10-19T13:40:25.286Z,957.99
2018-10-19T13:41:23.311Z,957.99
2018-10-19T13:42:25.102Z,957.96
2018-10-19T13:43:23.223Z,957.98
2018-10-19T13:44:23.191Z,958.02
2018-10-19T13:45:23.286Z,957.99
2018-10-19T13:46:23.621Z,957.98
2018-10-19T13:47:23.167Z,957.98
2018-10-19T13:48:23.180Z,957.98
2018-10-19T13:49:24.112Z,957.94
2018-10-19T13:50:23.261Z,957.95
2018-10-19T13:51:23.148Z,957.91
2018-10-19T13:52:44.198Z,957.92
2018-10-19T13:53:24.078Z,957.93
2018-10-19T13:54:23.286Z,957.93
2018-10-19T13:55:23.083Z,957.94
2018-10-19T13:56:23.094Z,957.95
2018-10-19T13:57:23.011Z,957.90
2018-10-19T13:58:23.653Z,957.87
2018-10-19T13:59:23.057Z,957.91
2018-10-19T14:00:23.021Z,957.92
2018-10-19T14:01:23.034Z,957.92
2018-10-19T14:02:23.617Z,957.96
2018-10-19T14:03:35.503Z,957.91
2018-10-19T14:05:37.405Z,957.92
2018-10-19T14:06:37.674Z,957.92
2018-10-19T14:07:37.285Z,957.95
2018-10-19T14:08:37.271Z,957.92
2018-10-19T14:11:02.541Z,957.87
2018-10-19T14:12:02.480Z,957.96
2018-10-19T14:13:02.279Z,957.97
2018-10-19T14:14:05.018Z,957.92
2018-10-19T14:15:03.031Z,957.95
2018-10-19T14:16:02.147Z,957.96
2018-10-19T14:17:02.237Z,957.96
2018-10-19T14:18:02.163Z,957.94
2018-10-19T14:19:02.190Z,957.93
2018-10-19T14:20:02.123Z,957.92
2018-10-19T14:21:02.166Z,957.91
2018-10-19T14:23:16.585Z,957.89
2018-10-19T14:24:17.322Z,957.94
2018-10-19T14:25:16.331Z,957.92
2018-10-19T14:26:16.490Z,957.90
2018-10-19T14:27:16.441Z,957.93
2018-10-19T14:28:16.282Z,957.95
2018-10-19T14:29:16.316Z,957.92
2018-10-19T14:30:16.197Z,957.88
2018-10-19T14:31:16.188Z,957.91
2018-10-19T14:32:16.151Z,957.88
2018-10-19T14:33:16.289Z,957.86
2018-10-19T14:34:16.182Z,957.85
2018-10-19T14:35:17.169Z,957.90
2018-10-19T14:36:17.125Z,957.84
2018-10-19T14:37:16.125Z,957.88
2018-10-19T14:38:16.168Z,957.90
2018-10-19T14:39:16.183Z,957.88
2018-10-19T14:40:17.142Z,957.86
2018-10-19T14:41:16.145Z,957.85
2018-10-19T14:42:16.105Z,957.84
2018-10-19T14:43:17.606Z,957.86
2018-10-19T14:44:16.083Z,957.86
2018-10-19T14:45:16.265Z,957.84
2018-10-19T14:46:16.034Z,957.88
2018-10-19T14:47:16.600Z,957.84
2018-10-19T14:48:28.240Z,957.85
2018-10-19T14:49:16.197Z,957.82
2018-10-19T14:50:26.615Z,957.83
2018-10-19T14:51:16.340Z,957.83
2018-10-19T14:52:37.213Z,957.81
2018-10-19T14:53:16.003Z,957.78
2018-10-19T14:54:15.940Z,957.80
2018-10-19T14:55:15.921Z,957.84
2018-10-19T14:56:15.932Z,957.82
2018-10-19T14:57:16.604Z,957.83
2018-10-19T14:58:15.842Z,957.87
2018-10-19T14:59:15.958Z,957.83
2018-10-19T15:00:15.870Z,957.82
2018-10-19T15:01:15.863Z,957.86
2018-10-19T15:02:15.862Z,957.85
2018-10-19T15:03:15.954Z,957.82
2018-10-19T15:04:15.791Z,957.85
2018-10-19T15:05:17.172Z,957.80
2018-10-19T15:06:15.792Z,957.82
2018-10-19T15:07:34.246Z,957.85
2018-10-19T15:08:15.758Z,957.87
2018-10-19T15:09:16.944Z,957.85
2018-10-19T15:10:15.869Z,957.80
2018-10-19T15:11:16.166Z,957.83
2018-10-19T15:12:15.753Z,957.80
2018-10-19T15:13:15.744Z,957.76
2018-10-19T15:14:15.721Z,957.82
2018-10-19T15:15:15.768Z,957.76
2018-10-19T15:16:15.716Z,957.75
2018-10-19T15:17:15.668Z,957.78
2018-10-19T15:18:15.856Z,957.81
2018-10-19T15:19:15.659Z,957.82
2018-10-19T15:20:15.593Z,957.81
2018-10-19T15:21:15.798Z,957.79
2018-10-19T15:22:15.604Z,957.81
2018-10-19T15:23:15.616Z,957.78
2018-10-19T15:24:15.652Z,957.80
2018-10-19T15:25:15.554Z,957.77
2018-10-19T15:26:15.601Z,957.72
2018-10-19T15:27:15.650Z,957.74
2018-10-19T15:28:16.117Z,957.77
2018-10-19T15:29:16.569Z,957.75
2018-10-19T15:30:15.622Z,957.72
2018-10-19T15:31:15.471Z,957.76
2018-10-19T15:32:15.544Z,957.78
2018-10-19T15:33:16.536Z,957.76
2018-10-19T15:34:15.466Z,957.76
2018-10-19T15:35:15.425Z,957.76
2018-10-19T15:36:15.502Z,957.74
2018-10-19T15:37:15.453Z,957.79
2018-10-19T15:38:15.419Z,957.80
2018-10-19T15:39:15.453Z,957.84
2018-10-19T15:40:15.633Z,957.77
2018-10-19T15:41:15.374Z,957.82
2018-10-19T15:42:15.526Z,957.78
2018-10-19T15:43:15.341Z,957.78
2018-10-19T15:44:15.380Z,957.75
2018-10-19T15:45:15.370Z,957.78
2018-10-19T15:46:15.291Z,957.81
2018-10-19T15:47:15.325Z,957.82
2018-10-19T15:48:15.421Z,957.87
2018-10-19T15:49:15.265Z,957.85
2018-10-19T15:50:15.297Z,957.84
2018-10-19T15:51:15.266Z,957.84
2018-10-19T15:52:15.333Z,957.82
2018-10-19T15:53:15.235Z,957.85
2018-10-19T15:54:15.295Z,957.85
2018-10-19T15:55:15.181Z,957.85
2018-10-19T15:56:15.230Z,957.85
2018-10-19T15:57:15.212Z,957.89
2018-10-19T15:58:15.179Z,957.89
2018-10-19T15:59:15.191Z,957.87
2018-10-19T16:00:15.158Z,957.89
2018-10-19T16:01:15.145Z,957.88
2018-10-19T16:02:15.117Z,957.89
2018-10-19T16:03:15.176Z,957.91
2018-10-19T16:04:15.171Z,957.88
2018-10-19T16:05:15.093Z,957.90
2018-10-19T16:06:15.153Z,957.89
2018-10-19T16:07:15.075Z,957.86
2018-10-19T16:08:15.153Z,957.88
2018-10-19T16:09:15.186Z,957.91
2018-10-19T16:10:15.097Z,957.88
2018-10-19T16:11:15.046Z,957.89
2018-10-19T16:12:15.128Z,957.94
2018-10-19T16:13:15.016Z,957.93
2018-10-19T16:14:14.980Z,957.93
2018-10-19T16:15:15.101Z,957.94
2018-10-19T16:16:14.976Z,957.93
2018-10-19T16:17:14.981Z,957.93
2018-10-19T16:18:14.998Z,957.92
2018-10-19T16:19:14.972Z,958.01
2018-10-19T16:20:14.946Z,958.01
2018-10-19T16:21:15.067Z,958.00
2018-10-19T16:22:14.883Z,957.96
2018-10-19T16:23:14.907Z,958.00
2018-10-19T16:24:14.911Z,958.04
2018-10-19T16:25:14.881Z,957.98
2018-10-19T16:26:15.306Z,958.02
2018-10-19T16:27:16.115Z,958.04
2018-10-19T16:28:14.843Z,958.08
2018-10-19T16:29:14.849Z,958.06
2018-10-19T16:30:14.865Z,958.03
2018-10-19T16:31:14.855Z,958.03
2018-10-19T16:32:15.767Z,958.03
2018-10-19T16:33:14.797Z,958.03
2018-10-19T16:34:14.787Z,958.08
2018-10-19T16:35:14.793Z,958.02
2018-10-19T16:36:14.975Z,958.05
2018-10-19T16:37:15.611Z,958.08
2018-10-19T16:38:14.710Z,958.13
2018-10-19T16:39:14.800Z,958.12
2018-10-19T16:40:14.746Z,958.09
2018-10-19T16:41:15.635Z,958.15
2018-10-19T16:42:15.746Z,958.08
2018-10-19T16:43:15.125Z,958.09
2018-10-19T16:44:14.651Z,958.10
2018-10-19T16:45:14.720Z,958.05
2018-10-19T16:46:14.663Z,958.11
2018-10-19T16:47:14.661Z,958.11
2018-10-19T16:48:15.623Z,958.09
2018-10-19T16:49:14.588Z,958.09
2018-10-19T16:50:14.570Z,958.13
2018-10-19T16:51:14.692Z,958.12
2018-10-19T16:53:39.368Z,958.11
2018-10-19T16:54:27.129Z,958.18
2018-10-19T16:55:27.146Z,958.19
2018-10-19T16:56:26.954Z,958.16
2018-10-19T16:57:26.853Z,958.15
2018-10-19T16:58:27.854Z,958.16
2018-10-19T16:59:26.835Z,958.19
2018-10-19T17:00:26.887Z,958.17
2018-10-19T17:01:26.791Z,958.16
2018-10-19T17:02:26.795Z,958.22
2018-10-19T17:03:26.931Z,958.22
2018-10-19T17:04:26.786Z,958.19
2018-10-19T17:05:26.759Z,958.20
2018-10-19T17:06:26.743Z,958.21
2018-10-19T17:07:26.764Z,958.26
2018-10-19T17:08:26.798Z,958.24
2018-10-19T17:09:26.739Z,958.20
2018-10-19T17:10:26.706Z,958.25
2018-10-19T17:11:26.690Z,958.19
2018-10-19T17:12:26.773Z,958.19
2018-10-19T17:13:26.681Z,958.16
2018-10-19T17:14:26.653Z,958.17
2018-10-19T17:15:26.634Z,958.19
2018-10-19T17:16:26.668Z,958.16
2018-10-19T17:17:26.675Z,958.21
2018-10-19T17:18:26.659Z,958.20
2018-10-19T17:19:26.727Z,958.21
2018-10-19T17:20:27.485Z,958.22
2018-10-19T17:21:26.580Z,958.21
2018-10-19T17:22:26.683Z,958.22
2018-10-19T17:23:26.625Z,958.22
2018-10-19T17:24:27.621Z,958.19
2018-10-19T17:25:26.591Z,958.21
2018-10-19T17:26:26.574Z,958.23
2018-10-19T17:27:26.521Z,958.21
2018-10-19T17:28:27.520Z,958.23
2018-10-19T17:29:26.491Z,958.23
2018-10-19T17:30:26.526Z,958.30
2018-10-19T17:31:26.478Z,958.27
2018-10-19T17:32:26.465Z,958.30
2018-10-19T17:33:26.679Z,958.32
2018-10-19T17:34:26.408Z,958.37
2018-10-19T17:35:26.442Z,958.31
2018-10-19T17:36:26.384Z,958.37
2018-10-19T17:37:26.485Z,958.36
2018-10-19T17:38:26.462Z,958.38
2018-10-19T17:39:26.381Z,958.35
2018-10-19T17:40:26.365Z,958.32
2018-10-19T17:41:27.331Z,958.35
2018-10-19T17:42:26.320Z,958.35
2018-10-19T17:43:26.400Z,958.33
2018-10-19T17:44:26.325Z,958.36
2018-10-19T17:45:26.351Z,958.40
2018-10-19T17:46:26.273Z,958.42
2018-10-19T17:47:26.308Z,958.39
2018-10-19T17:48:26.281Z,958.39
2018-10-19T17:49:26.301Z,958.42
2018-10-19T17:50:26.262Z,958.43
2018-10-19T17:51:26.244Z,958.38
2018-10-19T17:52:26.249Z,958.36
2018-10-19T17:53:26.190Z,958.36
2018-10-19T17:54:26.226Z,958.35
2018-10-19T17:55:26.209Z,958.36
2018-10-19T17:56:26.192Z,958.36
2018-10-19T17:57:26.201Z,958.33
2018-10-19T17:58:26.199Z,958.34
2018-10-19T17:59:27.013Z,958.32
2018-10-19T18:00:26.156Z,958.37
2018-10-19T18:01:26.108Z,958.31
2018-10-19T18:02:26.134Z,958.33
2018-10-19T18:03:26.090Z,958.35
2018-10-19T18:04:26.135Z,958.34
2018-10-19T18:05:26.123Z,958.39
2018-10-19T18:06:26.056Z,958.41
2018-10-19T18:11:15.472Z,958.41
2018-10-19T18:12:02.844Z,958.38
2018-10-19T18:13:02.519Z,958.38
2018-10-19T18:14:02.518Z,958.43
2018-10-19T18:15:02.519Z,958.42
2018-10-19T18:16:02.476Z,958.42
2018-10-19T18:17:02.563Z,958.42
2018-10-19T18:18:02.466Z,958.42
2018-10-19T18:19:02.500Z,958.42
2018-10-19T18:20:02.447Z,958.44
2018-10-19T18:21:02.426Z,958.43
2018-10-19T18:22:02.512Z,958.46
2018-10-19T18:23:02.642Z,958.47
2018-10-19T18:24:02.419Z,958.43
2018-10-19T18:25:02.362Z,958.48
2018-10-19T18:26:03.597Z,958.46
2018-10-19T18:27:02.357Z,958.47
2018-10-19T18:28:02.364Z,958.50
2018-10-19T18:29:02.324Z,958.48
2018-10-19T18:30:02.366Z,958.46
2018-10-19T18:31:02.263Z,958.49
2018-10-19T18:32:02.255Z,958.48
2018-10-19T18:33:02.985Z,958.45
2018-10-19T18:34:02.957Z,958.46
2018-10-19T18:35:02.360Z,958.47
2018-10-19T18:36:02.225Z,958.50
2018-10-19T18:37:02.217Z,958.52
2018-10-19T18:38:02.233Z,958.54
2018-10-19T18:39:02.168Z,958.52
2018-10-19T18:40:02.213Z,958.55
2018-10-19T18:41:02.188Z,958.55
2018-10-19T18:42:02.153Z,958.60
2018-10-19T18:43:02.146Z,958.58
2018-10-19T18:44:02.114Z,958.53
2018-10-19T18:45:02.073Z,958.55
2018-10-19T18:46:02.946Z,958.52
2018-10-19T18:47:03.162Z,958.51
2018-10-19T18:48:02.512Z,958.55
2018-10-19T18:49:02.103Z,958.51
2018-10-19T18:50:03.173Z,958.63
2018-10-19T18:51:02.949Z,958.59
2018-10-19T18:52:02.005Z,958.62
2018-10-19T18:53:02.160Z,958.63
2018-10-19T18:54:01.993Z,958.61
2018-10-19T18:55:01.984Z,958.58
2018-10-19T18:56:02.027Z,958.62
2018-10-19T18:57:01.938Z,958.64
2018-10-19T18:58:02.440Z,958.62
2018-10-19T18:59:12.673Z,958.65
2018-10-19T19:00:11.404Z,958.64
2018-10-19T19:01:02.055Z,958.68
2018-10-19T19:02:11.501Z,958.66
2018-10-19T19:03:02.052Z,958.69
2018-10-19T19:04:02.092Z,958.70
2018-10-19T19:05:12.305Z,958.71
2018-10-19T19:06:02.781Z,958.71
2018-10-19T19:07:11.375Z,958.75
2018-10-19T19:08:02.786Z,958.70
2018-10-19T19:09:02.730Z,958.75
2018-10-19T19:10:03.547Z,958.75
2018-10-19T19:11:03.028Z,958.73
2018-10-19T19:12:01.808Z,958.77
2018-10-19T19:13:10.514Z,958.78
2018-10-19T19:14:01.956Z,958.78
2018-10-19T19:15:04.676Z,958.79
2018-10-19T19:16:13.605Z,958.82
2018-10-19T19:17:13.771Z,958.79
2018-10-19T19:20:01.333Z,958.82
2018-10-19T19:21:01.064Z,958.83
2018-10-19T19:22:01.614Z,958.83
2018-10-19T19:24:46.940Z,958.82
2018-10-19T19:25:46.869Z,958.84
2018-10-19T19:26:46.796Z,958.85
2018-10-19T19:27:55.322Z,958.84
2018-10-19T19:28:46.744Z,958.87
2018-10-19T19:29:46.728Z,958.87
2018-10-19T19:30:47.428Z,958.91
2018-10-19T19:31:50.879Z,958.90
2018-10-19T19:33:00.631Z,958.84
2018-10-19T19:33:46.659Z,958.92
2018-10-19T19:34:46.612Z,958.90
2018-10-19T19:38:28.603Z,958.88
2018-10-19T19:39:01.814Z,958.92
2018-10-19T19:40:03.498Z,958.92
2018-10-19T19:41:33.999Z,958.94
2018-10-19T19:42:05.548Z,958.93
2018-10-19T19:43:03.949Z,958.93
2018-10-19T19:44:14.101Z,958.94
2018-10-19T19:45:01.602Z,958.98
2018-10-19T19:46:01.614Z,959.04
2018-10-19T19:47:03.543Z,958.98
2018-10-19T19:48:13.854Z,959.01
2018-10-19T19:49:02.749Z,959.07
2018-10-19T19:50:21.599Z,959.00
2018-10-19T19:52:14.778Z,959.05
2018-10-19T19:53:14.768Z,959.06
2018-10-19T19:54:14.663Z,959.06
2018-10-19T19:55:14.738Z,959.12
2018-10-19T19:56:14.674Z,959.06
2018-10-19T19:57:14.541Z,959.05
2018-10-19T19:58:15.804Z,959.05
2018-10-19T19:59:14.662Z,959.08
2018-10-19T20:00:14.509Z,959.11
2018-10-19T20:01:14.511Z,959.08
2018-10-19T20:02:14.504Z,959.06
2018-10-19T20:03:14.482Z,959.10
2018-10-19T20:04:14.516Z,959.04
2018-10-19T20:05:14.549Z,959.07
2018-10-19T20:06:14.485Z,959.13
2018-10-19T20:07:14.424Z,959.10
2018-10-19T20:08:14.529Z,959.12
2018-10-19T20:09:14.405Z,959.10
2018-10-19T20:10:14.393Z,959.13
2018-10-19T20:11:14.476Z,959.14
2018-10-19T20:12:14.426Z,959.16
2018-10-19T20:13:14.386Z,959.12
2018-10-19T20:14:14.443Z,959.09
2018-10-19T20:15:14.367Z,959.08
2018-10-19T20:16:14.999Z,959.11
2018-10-19T20:17:14.379Z,959.05
2018-10-19T20:18:14.370Z,959.06
2018-10-19T20:19:14.284Z,959.12
2018-10-19T20:20:14.330Z,959.10
2018-10-19T20:21:14.332Z,959.09
2018-10-19T20:22:14.252Z,959.13
2018-10-19T20:23:14.286Z,959.13
2018-10-19T20:24:14.230Z,959.16
2018-10-19T20:25:14.226Z,959.15
2018-10-19T20:26:14.277Z,959.19
2018-10-19T20:27:15.512Z,959.18
2018-10-19T20:28:14.189Z,959.17
2018-10-19T20:29:14.251Z,959.17
2018-10-19T20:30:14.210Z,959.17
2018-10-19T20:31:14.164Z,959.16
2018-10-19T20:32:14.174Z,959.13
2018-10-19T20:33:14.168Z,959.14
2018-10-19T20:34:14.123Z,959.15
2018-10-19T20:35:14.160Z,959.15
2018-10-19T20:36:14.113Z,959.15
2018-10-19T20:37:14.097Z,959.15
2018-10-19T20:38:14.127Z,959.10
2018-10-19T20:39:14.058Z,959.13
2018-10-19T20:40:14.051Z,959.12
2018-10-19T20:41:14.053Z,959.14
2018-10-19T20:42:14.030Z,959.15
2018-10-19T20:43:14.030Z,959.20
2018-10-19T20:44:14.041Z,959.18
2018-10-19T20:45:13.987Z,959.20
2018-10-19T20:46:13.982Z,959.17
2018-10-19T20:47:14.019Z,959.15
2018-10-19T20:48:13.984Z,959.16
2018-10-19T20:49:13.943Z,959.15
2018-10-19T20:50:14.083Z,959.15
2018-10-19T20:51:14.780Z,959.16
2018-10-19T20:52:13.918Z,959.15
2018-10-19T20:53:13.906Z,959.13
2018-10-19T20:54:13.931Z,959.18
2018-10-19T20:55:13.878Z,959.15
2018-10-19T20:56:14.023Z,959.18
2018-10-19T20:57:13.848Z,959.19
2018-10-19T20:58:13.840Z,959.15
2018-10-19T20:59:13.910Z,959.17
2018-10-19T21:00:13.830Z,959.18
2018-10-19T21:01:13.809Z,959.16
2018-10-19T21:02:13.878Z,959.12
2018-10-19T21:03:13.779Z,959.16
2018-10-19T21:04:14.469Z,959.12
2018-10-19T21:05:13.868Z,959.10
2018-10-19T21:06:15.464Z,959.14
2018-10-19T21:07:13.794Z,959.13
2018-10-19T21:08:13.777Z,959.11
2018-10-19T21:09:13.717Z,959.09
2018-10-19T21:10:13.710Z,959.06
2018-10-19T21:11:13.757Z,959.05
2018-10-19T21:12:13.679Z,959.03
2018-10-19T21:13:14.508Z,959.05
2018-10-19T21:14:13.804Z,959.05
2018-10-19T21:15:14.495Z,959.09
2018-10-19T21:16:13.651Z,959.06
2018-10-19T21:17:13.655Z,959.07
2018-10-19T21:18:14.500Z,959.06
2018-10-19T21:19:13.624Z,959.04
2018-10-19T21:20:13.733Z,959.08
2018-10-19T21:21:13.629Z,959.12
2018-10-19T21:22:13.564Z,959.11
2018-10-19T21:23:13.639Z,959.11
2018-10-19T21:24:13.545Z,959.07
2018-10-19T21:25:13.540Z,959.12
2018-10-19T21:26:13.657Z,959.08
2018-10-19T21:27:14.519Z,959.09
2018-10-19T21:28:14.501Z,959.06
2018-10-19T21:29:13.592Z,959.05
2018-10-19T21:30:13.475Z,959.06
2018-10-19T21:31:13.485Z,959.07
2018-10-19T21:32:13.633Z,959.02
2018-10-19T21:33:13.435Z,959.06
2018-10-19T21:34:13.427Z,959.02
2018-10-19T21:35:13.556Z,959.02
2018-10-19T21:36:13.470Z,959.01
2018-10-19T21:37:13.418Z,958.98
2018-10-19T21:38:14.030Z,959.01
2018-10-19T21:39:13.378Z,959.01
2018-10-19T21:40:13.972Z,958.97
2018-10-19T21:41:13.454Z,958.98
2018-10-19T21:42:13.380Z,958.99
2018-10-19T21:43:13.507Z,959.03